Time;durP1;ratioP1;P1;durP2;ratioP2;P2;SDS_P1;SDS_P2;PMS_P1;PMS_P2;Temp;Humidity;BMP_temperature;BMP_pressure;BME280_temperature;BME280_humidity;BME280_pressure;Samples;Min_cycle;Max_cycle;Signal;HPM_P1;HPM_P2
2022/10/22 00:00:10;;;;;;;5.70;3.07;;;;;;;13.73;46.24;95953.34;5094905;28;20979;-64
2022/10/22 00:02:37;;;;;;;1.33;1.33;;;;;;;13.54;46.29;95960.03;5110039;28;20619;-65
2022/10/22 00:05:04;;;;;;;1.80;1.57;;;;;;;13.67;46.57;95954.34;5110415;28;20436;-64
2022/10/22 00:07:31;;;;;;;3.07;2.43;;;;;;;13.75;45.98;95956.53;5099497;28;20437;-64
2022/10/22 00:09:58;;;;;;;1.27;1.07;;;;;;;13.47;46.58;95954.13;5089666;28;20441;-64
2022/10/22 00:12:26;;;;;;;0.90;0.63;;;;;;;13.73;46.38;95963.88;5106361;28;20501;-64
2022/10/22 00:14:53;;;;;;;1.50;1.40;;;;;;;13.66;45.83;95963.28;5110012;28;20542;-65
2022/10/22 00:17:20;;;;;;;1.50;1.30;;;;;;;13.62;45.69;95959.56;5097810;28;20457;-64
2022/10/22 00:19:47;;;;;;;0.93;0.73;;;;;;;13.58;45.75;95955.81;5096407;28;20459;-65
2022/10/22 00:22:13;;;;;;;26.37;1.53;;;;;;;13.57;46.18;95949.78;5096921;28;20534;-66
2022/10/22 00:24:41;;;;;;;2.63;2.37;;;;;;;13.64;46.26;95954.84;5091716;28;20449;-65
2022/10/22 00:27:09;;;;;;;1.40;1.03;;;;;;;13.59;46.32;95962.69;5105739;28;20487;-64
2022/10/22 00:29:36;;;;;;;2.17;1.97;;;;;;;13.55;46.35;95956.31;5093905;28;20476;-64
2022/10/22 00:32:04;;;;;;;1.20;1.17;;;;;;;13.57;46.11;95947.16;5109505;28;20851;-65
2022/10/22 00:34:31;;;;;;;2.37;2.13;;;;;;;13.20;47.37;95939.13;5108477;28;20903;-65
2022/10/22 00:36:58;;;;;;;1.33;1.30;;;;;;;13.15;47.49;95931.16;5101392;28;20443;-64
2022/10/22 00:39:26;;;;;;;1.47;1.37;;;;;;;12.28;49.33;95945.19;5093684;28;20460;-66
2022/10/22 00:41:54;;;;;;;1.03;0.93;;;;;;;12.61;48.65;95955.66;5096433;28;20588;-64
2022/10/22 00:44:59;;;;;;;4.00;2.10;;;;;;;12.77;48.12;95936.41;5107753;28;20448;-65
2022/10/22 00:47:36;;;;;;;2.13;1.97;;;;;;;12.53;48.72;95931.63;5093060;28;20469;-66
2022/10/22 00:50:07;;;;;;;0.30;0.30;;;;;;;12.71;48.01;95940.03;5095977;28;20514;-64
2022/10/22 00:52:35;;;;;;;0.30;0.30;;;;;;;12.45;48.46;95938.09;5104238;28;20548;-65
2022/10/22 00:55:02;;;;;;;2.73;0.73;;;;;;;12.88;48.21;95946.03;5098901;28;20537;-65
2022/10/22 00:57:29;;;;;;;1.70;0.93;;;;;;;12.25;49.41;95956.19;5101071;28;20467;-65
2022/10/22 00:59:57;;;;;;;2.13;1.93;;;;;;;11.53;51.37;95946.53;5113149;28;20906;-65
2022/10/22 01:02:24;;;;;;;1.43;1.07;;;;;;;12.40;49.37;95945.91;5112638;27;20480;-65
2022/10/22 01:04:51;;;;;;;0.70;0.70;;;;;;;12.40;49.38;95932.75;5103516;28;20458;-64
2022/10/22 01:07:21;;;;;;;1.07;0.87;;;;;;;12.26;49.80;95922.81;5097538;28;20449;-65
2022/10/22 01:10:12;;;;;;;1.33;1.23;;;;;;;12.39;49.28;95919.88;5104160;28;20574;-63
2022/10/22 01:12:49;;;;;;;0.80;0.80;;;;;;;11.96;49.72;95905.56;5109049;27;20464;-64
2022/10/22 01:15:47;;;;;;;1.07;1.07;;;;;;;12.57;48.88;95904.59;5107040;28;20482;-64
2022/10/22 01:18:43;;;;;;;1.10;1.03;;;;;;;12.34;48.80;95890.88;5102920;28;20824;-66
2022/10/22 01:21:30;;;;;;;0.50;0.50;;;;;;;12.52;48.51;95909.03;5111942;28;20472;-64
2022/10/22 01:24:06;;;;;;;1.07;0.87;;;;;;;12.47;48.94;95907.09;5108712;28;20438;-65
2022/10/22 01:26:51;;;;;;;1.93;1.33;;;;;;;11.85;50.47;95914.31;5107608;28;20551;-66
2022/10/22 01:29:28;;;;;;;0.43;0.43;;;;;;;11.71;51.25;95907.78;5103578;27;20455;-65
2022/10/22 01:32:01;;;;;;;0.73;0.73;;;;;;;12.36;49.67;95905.38;5108396;27;20440;-65
2022/10/22 01:34:30;;;;;;;0.80;0.80;;;;;;;12.51;48.68;95902.16;5114900;27;20443;-63
2022/10/22 01:36:59;;;;;;;0.17;0.17;;;;;;;12.73;47.70;95895.88;5103826;28;21163;-64
2022/10/22 01:39:28;;;;;;;1.17;1.07;;;;;;;12.63;48.23;95890.50;5108453;27;20459;-66
2022/10/22 01:41:57;;;;;;;0.40;0.40;;;;;;;12.71;48.16;95890.06;5099999;27;20509;-64
2022/10/22 01:44:26;;;;;;;0.73;0.73;;;;;;;12.68;48.02;95877.41;5100035;28;20939;-65
2022/10/22 01:47:31;;;;;;;1.60;1.20;;;;;;;12.90;47.24;95880.81;5108971;27;20861;-66
2022/10/22 01:50:30;;;;;;;0.77;0.77;;;;;;;12.93;47.36;95879.56;5112534;28;20436;-65
2022/10/22 01:53:08;;;;;;;2.90;1.80;;;;;;;12.88;47.61;95882.13;5095685;28;20433;-66
2022/10/22 01:55:47;;;;;;;2.50;1.83;;;;;;;12.92;47.23;95886.63;5109295;27;20444;-65
2022/10/22 01:58:46;;;;;;;0.63;0.63;;;;;;;12.91;47.48;95882.44;5103225;28;20954;-65
2022/10/22 02:01:27;;;;;;;5.10;2.43;;;;;;;12.87;47.22;95885.78;5107026;28;20467;-65
2022/10/22 02:04:08;;;;;;;0.87;0.80;;;;;;;12.54;48.06;95885.88;5099204;28;20436;-64
2022/10/22 02:06:37;;;;;;;0.33;0.33;;;;;;;12.71;47.66;95892.69;5097991;28;21135;-65
2022/10/22 02:09:06;;;;;;;0.47;0.47;;;;;;;11.69;50.05;95893.28;5114139;27;20450;-65
2022/10/22 02:11:33;;;;;;;0.60;0.60;;;;;;;12.06;49.70;95902.31;5103778;27;20979;-66
2022/10/22 02:14:03;;;;;;;1.53;1.43;;;;;;;12.41;49.19;95902.03;5107084;28;20527;-64
2022/10/22 02:16:35;;;;;;;0.40;0.40;;;;;;;12.52;48.29;95894.03;5105197;28;20566;-64
2022/10/22 02:19:09;;;;;;;2.83;1.60;;;;;;;12.00;49.59;95895.38;5099617;28;20441;-64
2022/10/22 02:21:36;;;;;;;5.20;1.23;;;;;;;11.83;50.08;95889.31;5112560;28;20484;-63
2022/10/22 02:24:03;;;;;;;5.87;2.43;;;;;;;11.53;50.66;95889.56;5098938;28;20464;-65
2022/10/22 02:26:39;;;;;;;2.03;1.80;;;;;;;12.22;49.17;95885.72;5104613;28;20448;-64
2022/10/22 02:29:10;;;;;;;1.40;1.30;;;;;;;12.05;49.06;95872.59;5104987;28;20505;-64
2022/10/22 02:31:42;;;;;;;3.17;1.30;;;;;;;11.99;49.49;95885.88;5106001;28;20445;-63
2022/10/22 02:34:18;;;;;;;1.53;1.27;;;;;;;12.06;48.95;95889.16;5091509;28;20446;-65
2022/10/22 02:36:46;;;;;;;2.20;2.03;;;;;;;12.35;48.27;95892.47;5102784;28;20954;-63
2022/10/22 02:39:19;;;;;;;0.93;0.80;;;;;;;12.27;48.27;95900.75;5090902;28;20509;-65
2022/10/22 02:41:46;;;;;;;1.43;1.33;;;;;;;12.31;47.84;95888.72;5091322;28;20512;-65
2022/10/22 02:44:13;;;;;;;2.47;0.60;;;;;;;12.37;47.84;95901.69;5093569;28;20468;-65
2022/10/22 02:46:42;;;;;;;0.37;0.37;;;;;;;12.50;47.68;95896.09;5100290;28;20846;-66
2022/10/22 02:49:09;;;;;;;1.17;1.10;;;;;;;12.55;47.82;95904.06;5111484;28;20514;-65
2022/10/22 02:51:36;;;;;;;0.93;0.93;;;;;;;11.78;49.07;95910.25;5098980;27;20471;-66
2022/10/22 02:54:02;;;;;;;0.40;0.40;;;;;;;11.52;50.05;95902.94;5096869;28;20460;-64
2022/10/22 02:56:29;;;;;;;0.87;0.87;;;;;;;11.65;49.88;95906.09;5101595;28;20452;-64
2022/10/22 02:58:56;;;;;;;0.20;0.20;;;;;;;12.02;48.88;95909.06;5101409;28;20441;-65
2022/10/22 03:01:23;;;;;;;0.23;0.23;;;;;;;11.94;48.58;95896.31;5102543;28;20906;-64
2022/10/22 03:03:50;;;;;;;0.97;0.87;;;;;;;10.96;51.40;95909.81;5091622;28;20449;-63
2022/10/22 03:06:17;;;;;;;1.17;1.17;;;;;;;10.90;52.32;95895.00;5093454;28;20494;-64
2022/10/22 03:08:45;;;;;;;3.20;0.77;;;;;;;11.76;50.32;95904.44;5093874;28;20494;-65
2022/10/22 03:11:12;;;;;;;0.50;0.50;;;;;;;11.58;50.13;95910.69;5105303;28;20486;-65
2022/10/22 03:13:39;;;;;;;0.40;0.40;;;;;;;11.08;51.57;95912.38;5090897;28;20503;-65
2022/10/22 03:16:06;;;;;;;2.93;1.40;;;;;;;11.22;50.96;95911.09;5109162;28;20523;-65
2022/10/22 03:18:33;;;;;;;1.17;1.17;;;;;;;11.37;50.80;95894.81;5102824;28;20471;-65
2022/10/22 03:21:18;;;;;;;0.77;0.77;;;;;;;11.62;50.12;95897.88;5101253;28;20469;-65
2022/10/22 03:23:46;;;;;;;0.87;0.87;;;;;;;11.91;49.14;95896.81;5110988;28;20535;-65
2022/10/22 03:26:14;;;;;;;0.57;0.50;;;;;;;12.01;49.21;95891.69;5111164;27;20448;-65
2022/10/22 03:28:41;;;;;;;1.50;1.40;;;;;;;11.95;48.93;95888.19;5111067;28;20926;-65
2022/10/22 03:31:08;;;;;;;6.30;1.53;;;;;;;12.02;48.49;95888.06;5112270;28;20527;-65
2022/10/22 03:33:35;;;;;;;2.10;0.63;;;;;;;12.06;48.50;95889.16;5103175;28;20449;-65
2022/10/22 03:36:02;;;;;;;0.60;0.60;;;;;;;12.01;48.20;95889.06;5104923;28;20447;-66
2022/10/22 03:38:29;;;;;;;1.47;1.37;;;;;;;12.21;47.92;95894.63;5103706;28;20480;-65
2022/10/22 03:40:57;;;;;;;0.73;0.63;;;;;;;12.09;48.00;95888.69;5095808;28;20512;-66
2022/10/22 03:43:24;;;;;;;0.60;0.60;;;;;;;12.00;48.12;95866.47;5090293;28;21218;-66
2022/10/22 03:45:50;;;;;;;0.33;0.33;;;;;;;12.13;48.10;95879.28;5106491;28;21007;-65
2022/10/22 03:48:17;;;;;;;0.47;0.47;;;;;;;12.14;47.83;95875.63;5110478;27;20451;-64
2022/10/22 03:50:44;;;;;;;1.67;1.33;;;;;;;12.14;48.00;95881.66;5107192;28;20599;-66
2022/10/22 03:53:11;;;;;;;0.47;0.47;;;;;;;12.07;47.72;95880.25;5097345;28;20880;-65
2022/10/22 03:55:40;;;;;;;0.43;0.43;;;;;;;12.11;47.76;95897.13;5097445;28;20497;-65
2022/10/22 03:58:06;;;;;;;0.50;0.50;;;;;;;12.19;47.13;95891.44;5095348;28;20540;-67
2022/10/22 04:00:34;;;;;;;0.20;0.20;;;;;;;12.20;47.39;95890.44;5104105;28;21018;-65
2022/10/22 04:03:01;;;;;;;1.40;1.30;;;;;;;11.96;48.22;95886.38;5089966;28;20479;-64
2022/10/22 04:05:28;;;;;;;1.23;1.20;;;;;;;12.18;47.70;95885.41;5089976;28;20596;-65
2022/10/22 04:07:55;;;;;;;0.40;0.40;;;;;;;12.12;47.42;95888.19;5110052;28;20440;-65
2022/10/22 04:10:21;;;;;;;0.60;0.60;;;;;;;12.10;48.10;95885.81;5101070;28;20459;-64
2022/10/22 04:12:48;;;;;;;0.63;0.60;;;;;;;12.03;48.35;95887.81;5098891;28;20451;-65
2022/10/22 04:15:15;;;;;;;1.57;1.40;;;;;;;12.06;48.23;95884.69;5091780;28;20488;-64
2022/10/22 04:17:42;;;;;;;0.83;0.83;;;;;;;12.14;48.03;95886.13;5098488;28;20447;-64
2022/10/22 04:20:10;;;;;;;2.77;1.43;;;;;;;12.17;48.24;95881.19;5099789;28;20434;-65
2022/10/22 04:22:36;;;;;;;5.13;1.30;;;;;;;12.19;47.93;95875.69;5103982;28;20472;-64
2022/10/22 04:25:04;;;;;;;6.73;2.10;;;;;;;12.06;48.27;95866.31;5089753;28;20430;-65
2022/10/22 04:27:32;;;;;;;3.60;0.60;;;;;;;12.06;48.42;95873.41;5095418;28;20460;-65
2022/10/22 04:29:59;;;;;;;1.23;0.97;;;;;;;12.17;48.21;95872.53;5103375;28;20452;-65
2022/10/22 04:32:26;;;;;;;5.40;1.23;;;;;;;12.08;48.51;95876.56;5100423;28;20452;-66
2022/10/22 04:34:53;;;;;;;0.70;0.70;;;;;;;12.15;48.39;95877.22;5107477;28;20443;-66
2022/10/22 04:37:20;;;;;;;0.93;0.93;;;;;;;12.11;48.29;95876.09;5109779;28;20505;-65
2022/10/22 04:39:47;;;;;;;3.07;1.47;;;;;;;12.10;48.31;95882.38;5106482;28;20519;-65
2022/10/22 04:42:14;;;;;;;1.30;1.20;;;;;;;12.08;48.27;95889.69;5090726;28;20554;-67
2022/10/22 04:44:41;;;;;;;13.03;2.07;;;;;;;12.17;48.28;95885.66;5096164;28;20579;-64
2022/10/22 04:47:08;;;;;;;1.00;0.90;;;;;;;11.97;48.99;95882.72;5109503;28;20570;-65
2022/10/22 04:49:35;;;;;;;2.00;1.80;;;;;;;12.10;48.82;95877.13;5109217;28;20436;-64
2022/10/22 04:52:02;;;;;;;2.17;2.00;;;;;;;12.35;47.96;95879.34;5095411;28;21194;-64
2022/10/22 04:54:29;;;;;;;0.63;0.40;;;;;;;12.21;48.21;95881.50;5089442;28;20535;-64
2022/10/22 04:56:59;;;;;;;1.80;1.23;;;;;;;12.07;48.77;95885.50;5099165;28;20526;-65
2022/10/22 04:59:25;;;;;;;1.13;1.13;;;;;;;12.15;48.75;95887.72;5096730;28;20538;-65
2022/10/22 05:01:52;;;;;;;0.73;0.73;;;;;;;12.22;48.48;95893.63;5098987;28;20512;-66
2022/10/22 05:04:19;;;;;;;5.40;2.87;;;;;;;12.15;48.59;95882.47;5097518;28;20878;-65
2022/10/22 05:06:46;;;;;;;0.73;0.73;;;;;;;12.41;48.20;95887.03;5100293;28;20445;-65
2022/10/22 05:09:16;;;;;;;1.57;1.27;;;;;;;12.35;48.24;95893.28;5107284;28;20527;-65
2022/10/22 05:11:47;;;;;;;1.77;1.67;;;;;;;12.21;48.62;95899.88;5098339;28;20949;-65
2022/10/22 05:14:17;;;;;;;1.47;1.37;;;;;;;12.43;48.44;95905.19;5103156;28;20444;-65
2022/10/22 05:16:46;;;;;;;0.77;0.77;;;;;;;12.36;48.34;95915.88;5098617;28;20596;-65
2022/10/22 05:19:22;;;;;;;1.77;1.47;;;;;;;12.63;47.96;95903.63;5108947;28;20500;-64
2022/10/22 05:21:54;;;;;;;3.13;2.63;;;;;;;12.53;48.21;95905.34;5099636;28;20472;-66
2022/10/22 05:24:21;;;;;;;2.90;2.70;;;;;;;12.47;48.57;95906.31;5101024;28;20451;-65
2022/10/22 05:26:52;;;;;;;3.20;2.77;;;;;;;12.53;48.51;95908.78;5097195;28;20483;-65
2022/10/22 05:29:20;;;;;;;1.40;1.30;;;;;;;12.63;48.24;95911.53;5103016;28;20453;-64
2022/10/22 05:31:47;;;;;;;0.93;0.93;;;;;;;12.54;47.99;95905.09;5097917;28;20457;-63
2022/10/22 05:34:14;;;;;;;3.40;3.10;;;;;;;12.49;48.23;95909.47;5102361;28;20440;-64
2022/10/22 05:36:41;;;;;;;1.47;1.03;;;;;;;12.36;48.69;95915.06;5097892;28;20434;-65
2022/10/22 05:39:08;;;;;;;0.50;0.50;;;;;;;12.40;48.46;95919.63;5105805;28;20967;-65
2022/10/22 05:41:35;;;;;;;2.13;1.53;;;;;;;11.88;52.17;95918.28;5101518;28;20921;-64
2022/10/22 05:44:02;;;;;;;0.83;0.83;;;;;;;12.21;51.23;95918.28;5103344;28;20876;-64
2022/10/22 05:46:33;;;;;;;4.13;1.87;;;;;;;12.38;50.93;95924.31;5097786;28;20473;-65
2022/10/22 05:49:04;;;;;;;1.37;1.13;;;;;;;12.22;51.22;95918.03;5090862;28;20544;-63
2022/10/22 05:51:35;;;;;;;2.10;1.07;;;;;;;12.18;51.55;95918.78;5092348;28;20448;-65
2022/10/22 05:54:05;;;;;;;1.63;1.53;;;;;;;11.90;51.99;95916.22;5111215;28;20436;-65
2022/10/22 05:56:33;;;;;;;0.80;0.80;;;;;;;11.46;53.06;95920.44;5112556;27;20450;-66
2022/10/22 05:59:00;;;;;;;3.50;3.00;;;;;;;11.93;51.13;95918.38;5109315;28;20533;-65
2022/10/22 06:01:34;;;;;;;2.20;2.00;;;;;;;12.13;50.94;95908.97;5101780;28;20442;-65
2022/10/22 06:04:06;;;;;;;2.43;2.23;;;;;;;12.53;49.27;95910.59;5102377;28;20452;-64
2022/10/22 06:06:53;;;;;;;0.70;0.70;;;;;;;12.23;49.91;95918.84;5096851;28;20539;-66
2022/10/22 06:09:34;;;;;;;1.17;1.07;;;;;;;12.73;48.66;95906.41;5095324;28;20543;-65
2022/10/22 06:12:09;;;;;;;3.30;2.67;;;;;;;12.76;48.58;95915.63;5102940;28;20444;-64
2022/10/22 06:14:36;;;;;;;1.03;1.03;;;;;;;12.14;50.57;95926.34;5099578;28;20452;-67
2022/10/22 06:17:03;;;;;;;5.53;2.30;;;;;;;12.39;50.85;95922.50;5092324;28;20931;-66
2022/10/22 06:19:30;;;;;;;6.10;3.20;;;;;;;12.84;49.82;95917.84;5092153;28;20524;-64
2022/10/22 06:21:57;;;;;;;3.17;2.87;;;;;;;12.45;50.58;95935.47;5107986;28;20511;-67
2022/10/22 06:24:24;;;;;;;1.80;1.17;;;;;;;12.91;49.50;95924.53;5101729;28;20428;-65
2022/10/22 06:26:51;;;;;;;0.80;0.80;;;;;;;12.51;50.25;95931.88;5099163;27;20479;-65
2022/10/22 06:29:18;;;;;;;1.30;1.23;;;;;;;12.47;50.79;95922.88;5099940;27;20971;-67
2022/10/22 06:31:45;;;;;;;4.43;2.70;;;;;;;12.90;49.95;95922.16;5100962;28;20438;-66
2022/10/22 06:34:13;;;;;;;2.47;2.03;;;;;;;12.79;50.16;95926.44;5105474;28;20535;-67
2022/10/22 06:36:43;;;;;;;3.23;1.20;;;;;;;12.51;49.81;95908.22;5099440;28;20432;-66
2022/10/22 06:39:12;;;;;;;2.27;2.03;;;;;;;13.23;49.08;95931.75;5110565;27;20820;-66
2022/10/22 06:41:39;;;;;;;1.23;1.13;;;;;;;13.22;50.84;95930.97;5091025;28;20524;-68
2022/10/22 06:44:06;;;;;;;5.07;2.23;;;;;;;13.18;50.62;95922.78;5106315;28;20523;-64
2022/10/22 06:46:34;;;;;;;1.83;1.73;;;;;;;13.35;50.59;95920.06;5112488;28;20502;-69
2022/10/22 06:49:04;;;;;;;3.30;3.00;;;;;;;13.58;49.81;95913.69;5113623;27;20447;-66
2022/10/22 06:51:31;;;;;;;1.67;1.57;;;;;;;13.69;49.38;95921.44;5100416;28;20835;-68
2022/10/22 06:53:58;;;;;;;1.63;1.53;;;;;;;13.53;48.49;95921.53;5099984;27;20469;-67
2022/10/22 06:56:27;;;;;;;4.03;3.43;;;;;;;13.45;49.64;95914.88;5108501;28;20535;-66
2022/10/22 06:58:56;;;;;;;2.40;2.20;;;;;;;13.71;49.10;95908.81;5100851;27;20446;-66
2022/10/22 07:01:26;;;;;;;4.20;3.50;;;;;;;13.84;47.62;95928.69;5110883;28;20475;-66
2022/10/22 07:03:53;;;;;;;3.80;2.87;;;;;;;13.62;48.54;95925.31;5103311;27;20937;-67
2022/10/22 07:06:21;;;;;;;2.03;1.50;;;;;;;13.58;48.96;95926.84;5111098;28;20531;-65
2022/10/22 07:08:48;;;;;;;3.23;2.37;;;;;;;13.93;48.06;95916.66;5103428;28;20444;-66
2022/10/22 07:11:20;;;;;;;5.50;2.80;;;;;;;14.39;47.34;95926.53;5108736;28;20535;-66
2022/10/22 07:13:47;;;;;;;1.93;1.83;;;;;;;14.62;46.70;95914.78;5104991;28;20444;-65
2022/10/22 07:16:16;;;;;;;7.93;4.63;;;;;;;14.81;46.21;95905.41;5104548;28;20441;-67
2022/10/22 07:18:44;;;;;;;3.03;2.07;;;;;;;15.02;44.96;95915.78;5097902;27;20456;-64
2022/10/22 07:21:12;;;;;;;2.73;2.53;;;;;;;15.09;44.87;95916.34;5096566;28;20527;-67
2022/10/22 07:23:39;;;;;;;5.60;4.67;;;;;;;14.62;45.91;95914.78;5100098;27;20559;-66
2022/10/22 07:26:07;;;;;;;1.23;1.17;;;;;;;14.39;47.64;95918.63;5108006;28;20440;-66
2022/10/22 07:28:37;;;;;;;1.93;1.83;;;;;;;14.32;47.78;95915.41;5093434;28;20424;-66
2022/10/22 07:31:10;;;;;;;2.13;2.03;;;;;;;14.41;47.37;95913.88;5108632;28;20447;-67
2022/10/22 07:33:39;;;;;;;2.93;2.50;;;;;;;14.74;46.37;95916.19;5102650;27;20464;-66
2022/10/22 07:36:09;;;;;;;1.70;1.60;;;;;;;15.73;45.02;95913.38;5096189;28;20874;-67
2022/10/22 07:38:36;;;;;;;2.63;2.43;;;;;;;15.72;44.89;95903.84;5100753;28;20475;-64
2022/10/22 07:41:03;;;;;;;4.47;3.33;;;;;;;15.48;44.84;95908.03;5096348;28;20441;-67
2022/10/22 07:43:30;;;;;;;3.13;2.93;;;;;;;15.89;47.33;95899.91;5100415;28;20484;-67
2022/10/22 07:45:58;;;;;;;4.40;3.33;;;;;;;14.80;46.46;95895.88;5109700;28;21084;-65
2022/10/22 07:48:25;;;;;;;1.90;1.80;;;;;;;15.09;46.49;95887.28;5109862;27;20523;-68
2022/10/22 07:50:52;;;;;;;2.30;2.03;;;;;;;15.43;45.77;95884.25;5093957;28;20444;-65
2022/10/22 07:53:20;;;;;;;1.77;1.67;;;;;;;15.50;45.52;95876.88;5095157;28;20543;-67
2022/10/22 07:55:48;;;;;;;2.30;1.50;;;;;;;15.43;46.01;95878.97;5093920;28;20447;-67
2022/10/22 07:58:17;;;;;;;2.17;1.93;;;;;;;15.64;45.07;95876.09;5102657;28;20982;-65
2022/10/22 08:00:44;;;;;;;1.50;1.13;;;;;;;16.26;43.51;95881.09;5103612;28;20482;-65
2022/10/22 08:03:13;;;;;;;0.90;0.87;;;;;;;16.48;43.58;95886.13;5099261;28;20571;-65
2022/10/22 08:05:42;;;;;;;2.60;2.40;;;;;;;16.23;43.36;95884.28;5093916;28;20540;-67
2022/10/22 08:08:14;;;;;;;1.43;1.33;;;;;;;16.93;42.62;95884.13;5097705;28;20459;-66
2022/10/22 08:10:41;;;;;;;2.03;1.93;;;;;;;16.97;41.86;95869.31;5094536;28;20544;-65
2022/10/22 08:13:08;;;;;;;3.93;3.33;;;;;;;16.91;42.29;95865.13;5109664;28;20542;-66
2022/10/22 08:15:35;;;;;;;3.50;2.30;;;;;;;17.22;41.52;95852.50;5109825;28;20479;-68
2022/10/22 08:18:02;;;;;;;11.57;3.03;;;;;;;17.31;41.02;95864.13;5110234;28;20435;-69
2022/10/22 08:20:29;;;;;;;1.70;1.57;;;;;;;17.91;40.76;95862.94;5110177;27;20432;-69
2022/10/22 08:22:57;;;;;;;1.77;1.67;;;;;;;18.89;38.81;95856.16;5104267;28;20476;-64
2022/10/22 08:25:24;;;;;;;1.07;1.07;;;;;;;19.27;38.14;95853.56;5105194;28;20440;-68
2022/10/22 08:27:51;;;;;;;2.97;2.33;;;;;;;18.05;39.60;95858.56;5109260;28;20452;-68
2022/10/22 08:30:18;;;;;;;3.43;2.87;;;;;;;17.88;41.22;95839.63;5109676;28;20989;-63
2022/10/22 08:32:45;;;;;;;7.87;5.00;;;;;;;17.28;41.83;95846.09;5095434;27;20441;-65
2022/10/22 08:35:17;;;;;;;6.67;1.87;;;;;;;17.49;41.73;95849.47;5106007;28;20502;-66
2022/10/22 08:37:44;;;;;;;2.87;1.63;;;;;;;17.06;41.88;95851.00;5097705;28;20428;-64
2022/10/22 08:40:24;;;;;;;1.33;1.23;;;;;;;17.86;41.17;95849.72;5095126;27;20536;-64
2022/10/22 08:43:06;;;;;;;2.63;2.43;;;;;;;18.01;40.69;95852.25;5094982;28;20587;-68
2022/10/22 08:46:00;;;;;;;2.27;2.07;;;;;;;18.04;40.62;95851.69;5094895;28;20488;-71
2022/10/22 08:48:37;;;;;;;2.67;2.43;;;;;;;18.43;39.89;95851.63;5091116;28;20529;-72
2022/10/22 08:51:04;;;;;;;2.07;1.93;;;;;;;18.48;40.14;95852.38;5092756;27;20436;-68
2022/10/22 08:54:03;;;;;;;1.17;1.07;;;;;;;18.87;39.08;95849.53;5101594;28;20444;-66
2022/10/22 08:56:33;;;;;;;1.80;1.60;;;;;;;18.90;39.16;95844.44;5080010;28;20504;-67
2022/10/22 08:59:13;;;;;;;3.93;2.43;;;;;;;19.92;37.75;95841.97;5093370;28;20440;-67
2022/10/22 09:01:50;;;;;;;2.63;2.43;;;;;;;19.15;38.41;95846.81;5109247;28;20549;-67
2022/10/22 09:04:33;;;;;;;1.77;1.67;;;;;;;19.69;37.19;95845.53;5109285;28;20506;-66
2022/10/22 09:07:00;;;;;;;2.20;1.23;;;;;;;19.32;38.07;95850.84;5095982;28;20483;-68
2022/10/22 09:09:33;;;;;;;0.50;0.50;;;;;;;19.34;37.79;95835.41;5113326;27;20439;-66
2022/10/22 09:12:03;;;;;;;2.10;1.80;;;;;;;19.82;36.95;95829.63;5117120;27;20856;-70
2022/10/22 09:14:30;;;;;;;1.50;1.33;;;;;;;20.21;35.63;95839.94;5109026;28;20523;-64
2022/10/22 09:17:34;;;;;;;1.47;1.37;;;;;;;20.38;35.88;95821.53;5109199;28;20444;-69
2022/10/22 09:20:14;;;;;;;0.83;0.83;;;;;;;19.42;37.57;95827.59;5089953;28;20433;-67
2022/10/22 09:22:51;;;;;;;0.57;0.57;;;;;;;20.46;36.00;95828.03;5106515;28;20543;-67
2022/10/22 09:25:31;;;;;;;1.03;0.93;;;;;;;19.99;35.93;95821.09;5104155;28;20447;-65
2022/10/22 09:27:58;;;;;;;2.37;2.17;;;;;;;20.36;36.49;95809.59;5098705;28;20440;-66
2022/10/22 09:30:32;;;;;;;1.27;1.13;;;;;;;20.74;35.64;95806.44;5111835;28;20558;-65
2022/10/22 09:33:05;;;;;;;0.37;0.37;;;;;;;21.26;34.86;95815.00;5112787;28;20450;-67
2022/10/22 09:35:43;;;;;;;1.30;1.20;;;;;;;21.00;35.27;95799.53;5113035;28;20432;-67
2022/10/22 09:38:13;;;;;;;0.80;0.67;;;;;;;20.23;36.18;95813.81;5098407;28;21136;-69
2022/10/22 09:40:49;;;;;;;0.97;0.97;;;;;;;20.45;35.95;95811.28;5111274;28;20447;-66
2022/10/22 09:43:17;;;;;;;6.23;2.10;;;;;;;20.36;35.79;95797.06;5092084;28;20468;-70
2022/10/22 09:45:45;;;;;;;4.23;1.63;;;;;;;20.69;35.59;95790.53;5106537;27;20459;-64
2022/10/22 09:48:33;;;;;;;1.67;1.57;;;;;;;20.84;35.31;95776.94;5100547;28;20432;-68
2022/10/22 09:51:19;;;;;;;0.87;0.87;;;;;;;20.66;35.29;95780.50;5105260;27;20487;-65
2022/10/22 09:54:00;;;;;;;4.67;0.90;;;;;;;20.85;35.41;95783.84;5108187;28;20495;-67
2022/10/22 09:56:36;;;;;;;0.70;0.70;;;;;;;21.29;34.26;95777.84;5102461;27;20523;-63
2022/10/22 09:59:03;;;;;;;1.87;1.77;;;;;;;21.45;34.33;95781.75;5106559;28;20459;-66
2022/10/22 10:01:37;;;;;;;2.50;1.87;;;;;;;20.49;35.95;95780.28;5101981;28;20441;-65
2022/10/22 10:04:07;;;;;;;0.83;0.80;;;;;;;21.08;35.48;95777.50;5110118;28;20476;-66
2022/10/22 10:06:39;;;;;;;1.03;0.73;;;;;;;20.47;36.12;95771.84;5112485;27;20538;-70
2022/10/22 10:09:16;;;;;;;1.40;1.30;;;;;;;21.45;34.77;95756.97;5113288;28;20266;-72
2022/10/22 10:12:03;;;;;;;1.73;1.00;;;;;;;21.38;35.14;95759.25;5113221;28;20440;-66
2022/10/22 10:14:46;;;;;;;2.03;1.70;;;;;;;21.63;34.66;95761.31;5112207;28;20459;-67
2022/10/22 10:18:02;;;;;;;6.83;4.33;;;;;;;21.68;34.31;95761.19;5112279;28;20440;-66
2022/10/22 10:20:42;;;;;;;2.23;2.03;;;;;;;21.55;34.10;95746.06;5101463;28;20517;-71
2022/10/22 10:23:25;;;;;;;1.23;1.13;;;;;;;21.21;34.83;95748.44;5097897;28;20464;-69
2022/10/22 10:26:40;;;;;;;1.00;0.90;;;;;;;21.60;33.81;95746.72;5111862;28;20432;-64
2022/10/22 10:29:26;;;;;;;7.03;1.47;;;;;;;21.27;35.55;95742.72;5102317;28;20449;-67
2022/10/22 10:32:05;;;;;;;0.90;0.90;;;;;;;22.22;34.01;95736.91;5097445;28;20444;-65
2022/10/22 10:34:53;;;;;;;1.20;1.20;;;;;;;21.98;33.59;95731.13;5098067;28;20457;-68
2022/10/22 10:37:26;;;;;;;0.50;0.50;;;;;;;22.17;33.53;95729.00;5111913;28;20440;-65
2022/10/22 10:40:15;;;;;;;1.20;0.97;;;;;;;21.87;34.60;95725.28;5101416;27;20516;-65
2022/10/22 10:42:59;;;;;;;2.47;1.27;;;;;;;22.50;33.81;95724.88;5098907;27;20447;-61
2022/10/22 10:46:00;;;;;;;0.53;0.53;;;;;;;22.34;33.34;95712.25;5111229;28;20510;-64
2022/10/22 10:48:46;;;;;;;1.73;1.53;;;;;;;22.60;33.75;95705.94;5091136;28;20202;-65
2022/10/22 10:51:24;;;;;;;1.57;1.47;;;;;;;22.01;33.42;95706.47;5096677;28;20203;-63
2022/10/22 10:53:54;;;;;;;0.97;0.90;;;;;;;21.91;34.84;95704.09;5093486;28;20201;-65
2022/10/22 10:56:43;;;;;;;2.23;1.43;;;;;;;21.89;34.16;95695.59;5101893;27;20219;-64
2022/10/22 10:59:12;;;;;;;2.53;2.33;;;;;;;22.20;34.09;95687.56;5109620;28;20229;-70
2022/10/22 11:02:10;;;;;;;17.73;12.27;;;;;;;22.91;32.72;95682.56;5100152;27;20276;-66
2022/10/22 11:04:45;;;;;;;1.90;1.23;;;;;;;22.52;33.27;95671.94;5100064;27;20475;-69
2022/10/22 11:07:19;;;;;;;2.93;1.60;;;;;;;22.87;32.87;95662.91;5112477;28;20637;-69
2022/10/22 11:10:08;;;;;;;0.87;0.87;;;;;;;22.77;33.19;95647.16;5110696;28;20436;-65
2022/10/22 11:12:41;;;;;;;0.70;0.70;;;;;;;22.92;33.31;95652.06;5097238;28;20255;-64
2022/10/22 11:15:30;;;;;;;0.93;0.93;;;;;;;23.19;33.13;95655.50;5110177;28;20307;-69
2022/10/22 11:18:15;;;;;;;2.57;1.97;;;;;;;23.80;31.55;95642.50;5105390;28;20188;-68
2022/10/22 11:20:54;;;;;;;4.03;2.03;;;;;;;23.78;30.72;95625.19;5099053;28;20608;-68
2022/10/22 11:23:34;;;;;;;1.17;1.10;;;;;;;23.51;30.77;95614.88;5098292;28;20212;-71
2022/10/22 11:26:06;;;;;;;1.03;1.03;;;;;;;23.54;31.66;95624.97;5111148;28;20199;-70
2022/10/22 11:28:53;;;;;;;0.60;0.60;;;;;;;23.99;31.48;95621.50;5103108;28;20206;-73
2022/10/22 11:31:24;;;;;;;2.10;1.20;;;;;;;23.55;31.09;95602.44;5104795;28;20190;-71
2022/10/22 11:34:17;;;;;;;1.93;1.60;;;;;;;23.32;32.06;95614.47;5111453;28;20194;-76
2022/10/22 11:37:01;;;;;;;1.80;0.80;;;;;;;23.82;31.12;95602.03;5109047;28;20190;-68
2022/10/22 11:39:52;;;;;;;0.83;0.37;;;;;;;23.72;31.48;95608.50;5096211;28;20289;-67
2022/10/22 11:42:33;;;;;;;4.00;2.90;;;;;;;24.77;30.79;95597.72;5094868;28;20385;-68
2022/10/22 11:45:04;;;;;;;4.30;2.57;;;;;;;23.71;31.55;95596.25;5099642;28;20330;-67
2022/10/22 11:47:58;;;;;;;2.23;1.70;;;;;;;24.62;30.24;95572.28;5110424;28;20218;-70
2022/10/22 11:50:42;;;;;;;0.97;0.97;;;;;;;23.87;31.46;95594.59;5107692;28;20199;-67
2022/10/22 11:53:11;;;;;;;3.60;1.77;;;;;;;24.07;31.37;95593.13;5101265;28;20267;-68
2022/10/22 11:55:47;;;;;;;1.70;1.60;;;;;;;24.46;30.17;95592.72;5107065;27;20286;-68
2022/10/22 11:58:38;;;;;;;1.90;1.77;;;;;;;24.87;29.96;95583.94;5101191;28;20194;-70